sensor_id;sensor_type;location;lat;lon;timestamp;noise_LAeq;noise_LA_min;noise_LA_max;noise_LA01;noise_LA95
66458;Laerm;56835;52.198;4.826;2023-02-28T00:00:07;55.33;53.97;56.84;;
66458;Laerm;56835;52.198;4.826;2023-02-28T00:00:20;55.32;53.39;56.55;;
66458;Laerm;56835;52.198;4.826;2023-02-28T00:00:31;55.27;53.52;56.96;;
66458;Laerm;56835;52.198;4.826;2023-02-28T00:00:41;55.11;53.19;56.54;;
66458;Laerm;56835;52.198;4.826;2023-02-28T00:00:53;55.04;52.88;56.23;;
66458;Laerm;56835;52.198;4.826;2023-02-28T00:01:03;55.01;52.81;56.76;;
66458;Laerm;56835;52.198;4.826;2023-02-28T00:01:13;55.08;53.11;56.74;;
66458;Laerm;56835;52.198;4.826;2023-02-28T00:01:24;55.08;53.40;56.90;;
66458;Laerm;56835;52.198;4.826;2023-02-28T00:01:34;55.05;52.43;56.56;;
66458;Laerm;56835;52.198;4.826;2023-02-28T00:01:45;55.02;52.99;56.93;;
66458;Laerm;56835;52.198;4.826;2023-02-28T00:01:55;55.18;52.91;56.74;;
66458;Laerm;56835;52.198;4.826;2023-02-28T00:02:05;55.32;53.34;56.80;;
66458;Laerm;56835;52.198;4.826;2023-02-28T00:02:15;55.34;53.22;57.10;;
66458;Laerm;56835;52.198;4.826;2023-02-28T00:02:27;55.37;52.62;56.80;;
66458;Laerm;56835;52.198;4.826;2023-02-28T00:02:38;55.36;53.32;56.78;;
66458;Laerm;56835;52.198;4.826;2023-02-28T00:02:48;55.34;53.29;56.79;;
66458;Laerm;56835;52.198;4.826;2023-02-28T00:02:59;55.37;53.34;56.85;;
66458;Laerm;56835;52.198;4.826;2023-02-28T00:03:09;55.37;52.91;57.02;;
66458;Laerm;56835;52.198;4.826;2023-02-28T00:03:19;55.30;53.40;56.98;;
66458;Laerm;56835;52.198;4.826;2023-02-28T00:03:29;55.34;53.76;56.63;;
66458;Laerm;56835;52.198;4.826;2023-02-28T00:03:40;55.36;53.40;56.63;;
66458;Laerm;56835;52.198;4.826;2023-02-28T00:03:50;55.36;53.47;56.85;;
66458;Laerm;56835;52.198;4.826;2023-02-28T00:04:00;55.31;53.13;56.90;;
66458;Laerm;56835;52.198;4.826;2023-02-28T00:04:10;55.28;52.95;56.54;;
66458;Laerm;56835;52.198;4.826;2023-02-28T00:04:21;55.41;53.96;56.72;;
66458;Laerm;56835;52.198;4.826;2023-02-28T00:04:31;55.42;52.15;57.01;;
66458;Laerm;56835;52.198;4.826;2023-02-28T00:04:41;55.45;52.78;56.76;;
66458;Laerm;56835;52.198;4.826;2023-02-28T00:04:51;55.24;52.86;56.95;;
66458;Laerm;56835;52.198;4.826;2023-02-28T00:05:12;55.33;53.76;56.92;;
66458;Laerm;56835;52.198;4.826;2023-02-28T00:05:23;55.30;53.75;56.81;;
66458;Laerm;56835;52.198;4.826;2023-02-28T00:05:33;55.29;53.13;56.64;;
66458;Laerm;56835;52.198;4.826;2023-02-28T00:05:44;55.30;52.65;56.93;;
66458;Laerm;56835;52.198;4.826;2023-02-28T00:05:54;55.34;53.15;57.01;;
66458;Laerm;56835;52.198;4.826;2023-02-28T00:06:04;55.39;53.72;56.62;;
66458;Laerm;56835;52.198;4.826;2023-02-28T00:06:15;55.46;53.85;56.83;;
66458;Laerm;56835;52.198;4.826;2023-02-28T00:06:26;55.45;53.20;56.75;;
66458;Laerm;56835;52.198;4.826;2023-02-28T00:06:36;55.42;52.97;56.64;;
66458;Laerm;56835;52.198;4.826;2023-02-28T00:06:46;55.37;53.79;56.81;;
66458;Laerm;56835;52.198;4.826;2023-02-28T00:06:57;55.41;53.18;57.07;;
66458;Laerm;56835;52.198;4.826;2023-02-28T00:07:07;55.40;53.29;56.84;;
66458;Laerm;56835;52.198;4.826;2023-02-28T00:07:17;55.34;53.95;56.77;;
66458;Laerm;56835;52.198;4.826;2023-02-28T00:07:27;55.33;53.20;57.10;;
66458;Laerm;56835;52.198;4.826;2023-02-28T00:07:38;55.30;53.23;56.93;;
66458;Laerm;56835;52.198;4.826;2023-02-28T00:07:48;55.34;53.79;56.73;;
66458;Laerm;56835;52.198;4.826;2023-02-28T00:07:59;55.36;53.37;56.74;;
66458;Laerm;56835;52.198;4.826;2023-02-28T00:08:09;55.38;53.95;57.03;;
66458;Laerm;56835;52.198;4.826;2023-02-28T00:08:19;55.34;53.31;56.71;;
66458;Laerm;56835;52.198;4.826;2023-02-28T00:08:30;55.30;53.73;56.67;;
66458;Laerm;56835;52.198;4.826;2023-02-28T00:08:40;55.31;53.45;56.53;;
66458;Laerm;56835;52.198;4.826;2023-02-28T00:08:50;55.30;53.38;56.79;;
66458;Laerm;56835;52.198;4.826;2023-02-28T00:09:01;55.24;53.47;56.91;;
66458;Laerm;56835;52.198;4.826;2023-02-28T00:09:11;55.28;53.30;56.87;;
66458;Laerm;56835;52.198;4.826;2023-02-28T00:09:22;55.26;53.44;56.86;;
66458;Laerm;56835;52.198;4.826;2023-02-28T00:09:32;55.31;52.79;57.06;;
66458;Laerm;56835;52.198;4.826;2023-02-28T00:09:42;55.35;53.24;56.74;;
66458;Laerm;56835;52.198;4.826;2023-02-28T00:09:52;55.31;53.31;56.70;;
66458;Laerm;56835;52.198;4.826;2023-02-28T00:10:06;55.28;53.24;57.07;;
66458;Laerm;56835;52.198;4.826;2023-02-28T00:10:18;55.41;52.30;56.89;;
66458;Laerm;56835;52.198;4.826;2023-02-28T00:10:30;55.42;53.19;56.79;;
66458;Laerm;56835;52.198;4.826;2023-02-28T00:10:41;55.36;53.04;57.01;;
66458;Laerm;56835;52.198;4.826;2023-02-28T00:10:51;55.37;53.28;56.84;;
66458;Laerm;56835;52.198;4.826;2023-02-28T00:11:06;55.25;53.56;56.83;;
66458;Laerm;56835;52.198;4.826;2023-02-28T00:11:17;55.30;53.32;57.06;;
66458;Laerm;56835;52.198;4.826;2023-02-28T00:11:27;55.29;53.39;56.66;;
66458;Laerm;56835;52.198;4.826;2023-02-28T00:11:37;55.31;53.25;56.85;;
66458;Laerm;56835;52.198;4.826;2023-02-28T00:11:47;55.26;53.42;56.93;;
66458;Laerm;56835;52.198;4.826;2023-02-28T00:11:58;55.27;53.09;56.71;;
66458;Laerm;56835;52.198;4.826;2023-02-28T00:12:08;55.25;53.41;56.52;;
66458;Laerm;56835;52.198;4.826;2023-02-28T00:12:20;55.31;53.43;56.54;;
66458;Laerm;56835;52.198;4.826;2023-02-28T00:12:30;55.20;52.47;56.79;;
66458;Laerm;56835;52.198;4.826;2023-02-28T00:12:40;55.22;53.52;56.68;;
66458;Laerm;56835;52.198;4.826;2023-02-28T00:12:51;55.19;52.69;56.84;;
66458;Laerm;56835;52.198;4.826;2023-02-28T00:13:05;55.29;52.64;56.77;;
66458;Laerm;56835;52.198;4.826;2023-02-28T00:13:15;55.30;53.07;57.21;;
66458;Laerm;56835;52.198;4.826;2023-02-28T00:13:26;55.28;53.71;56.61;;
66458;Laerm;56835;52.198;4.826;2023-02-28T00:13:38;55.27;53.57;56.62;;
66458;Laerm;56835;52.198;4.826;2023-02-28T00:13:49;55.28;53.29;56.73;;
66458;Laerm;56835;52.198;4.826;2023-02-28T00:13:59;55.25;53.28;56.80;;
66458;Laerm;56835;52.198;4.826;2023-02-28T00:14:09;55.23;53.09;56.45;;
66458;Laerm;56835;52.198;4.826;2023-02-28T00:14:19;55.27;53.23;56.61;;
66458;Laerm;56835;52.198;4.826;2023-02-28T00:14:30;55.26;53.41;56.59;;
66458;Laerm;56835;52.198;4.826;2023-02-28T00:14:40;55.33;53.44;56.95;;
66458;Laerm;56835;52.198;4.826;2023-02-28T00:14:50;55.28;53.82;56.64;;
66458;Laerm;56835;52.198;4.826;2023-02-28T00:15:01;55.26;53.51;57.05;;
66458;Laerm;56835;52.198;4.826;2023-02-28T00:15:11;55.28;53.08;56.89;;
66458;Laerm;56835;52.198;4.826;2023-02-28T00:15:22;55.29;53.17;56.98;;
66458;Laerm;56835;52.198;4.826;2023-02-28T00:15:33;55.27;53.03;56.59;;
66458;Laerm;56835;52.198;4.826;2023-02-28T00:15:43;55.31;53.68;56.74;;
66458;Laerm;56835;52.198;4.826;2023-02-28T00:15:59;55.22;53.44;56.67;;
66458;Laerm;56835;52.198;4.826;2023-02-28T00:16:10;55.36;52.55;56.98;;
66458;Laerm;56835;52.198;4.826;2023-02-28T00:16:21;55.34;53.35;57.00;;
66458;Laerm;56835;52.198;4.826;2023-02-28T00:16:32;55.32;53.43;56.69;;
66458;Laerm;56835;52.198;4.826;2023-02-28T00:16:42;55.26;52.98;56.86;;
66458;Laerm;56835;52.198;4.826;2023-02-28T00:16:52;55.26;53.11;57.23;;
66458;Laerm;56835;52.198;4.826;2023-02-28T00:17:03;55.30;53.67;57.04;;
66458;Laerm;56835;52.198;4.826;2023-02-28T00:17:13;55.24;53.18;57.05;;
66458;Laerm;56835;52.198;4.826;2023-02-28T00:17:23;55.14;53.45;56.39;;
66458;Laerm;56835;52.198;4.826;2023-02-28T00:17:33;55.05;52.85;56.74;;
66458;Laerm;56835;52.198;4.826;2023-02-28T00:17:44;55.16;53.44;56.71;;
66458;Laerm;56835;52.198;4.826;2023-02-28T00:17:54;55.35;53.53;56.75;;
66458;Laerm;56835;52.198;4.826;2023-02-28T00:18:04;55.20;53.50;56.91;;
66458;Laerm;56835;52.198;4.826;2023-02-28T00:18:15;55.31;53.00;56.47;;
66458;Laerm;56835;52.198;4.826;2023-02-28T00:18:25;55.32;53.55;56.60;;
66458;Laerm;56835;52.198;4.826;2023-02-28T00:18:35;55.42;53.82;56.73;;
66458;Laerm;56835;52.198;4.826;2023-02-28T00:18:46;55.34;52.73;57.22;;
66458;Laerm;56835;52.198;4.826;2023-02-28T00:18:57;55.24;52.65;56.84;;
66458;Laerm;56835;52.198;4.826;2023-02-28T00:19:07;55.29;53.27;56.85;;
66458;Laerm;56835;52.198;4.826;2023-02-28T00:19:18;55.31;53.42;56.90;;
66458;Laerm;56835;52.198;4.826;2023-02-28T00:19:28;55.28;53.67;56.76;;
66458;Laerm;56835;52.198;4.826;2023-02-28T00:19:38;55.31;53.02;56.68;;
66458;Laerm;56835;52.198;4.826;2023-02-28T00:19:48;55.32;53.77;56.73;;
66458;Laerm;56835;52.198;4.826;2023-02-28T00:19:59;55.26;53.00;57.03;;
66458;Laerm;56835;52.198;4.826;2023-02-28T00:20:21;55.23;53.29;56.78;;
66458;Laerm;56835;52.198;4.826;2023-02-28T00:20:32;55.28;53.81;56.59;;
66458;Laerm;56835;52.198;4.826;2023-02-28T00:20:42;55.28;53.52;56.77;;
66458;Laerm;56835;52.198;4.826;2023-02-28T00:20:52;55.20;53.12;56.39;;
66458;Laerm;56835;52.198;4.826;2023-02-28T00:21:03;55.23;53.46;56.67;;
66458;Laerm;56835;52.198;4.826;2023-02-28T00:21:13;55.21;52.61;56.39;;
66458;Laerm;56835;52.198;4.826;2023-02-28T00:21:24;55.20;53.42;56.64;;
66458;Laerm;56835;52.198;4.826;2023-02-28T00:21:34;55.30;53.52;56.76;;
66458;Laerm;56835;52.198;4.826;2023-02-28T00:21:45;55.26;52.72;56.78;;
66458;Laerm;56835;52.198;4.826;2023-02-28T00:21:55;55.29;53.06;56.65;;
66458;Laerm;56835;52.198;4.826;2023-02-28T00:22:06;55.24;53.31;56.56;;
66458;Laerm;56835;52.198;4.826;2023-02-28T00:22:17;55.22;53.49;56.66;;
66458;Laerm;56835;52.198;4.826;2023-02-28T00:22:27;55.29;53.07;56.60;;
66458;Laerm;56835;52.198;4.826;2023-02-28T00:22:39;55.26;53.43;56.90;;
66458;Laerm;56835;52.198;4.826;2023-02-28T00:22:51;55.33;53.16;56.77;;
66458;Laerm;56835;52.198;4.826;2023-02-28T00:23:02;55.25;53.00;56.68;;
66458;Laerm;56835;52.198;4.826;2023-02-28T00:23:12;55.25;53.33;56.58;;
66458;Laerm;56835;52.198;4.826;2023-02-28T00:23:23;55.26;53.61;57.19;;
66458;Laerm;56835;52.198;4.826;2023-02-28T00:23:33;55.26;53.10;56.94;;
66458;Laerm;56835;52.198;4.826;2023-02-28T00:23:43;55.29;53.27;56.83;;
66458;Laerm;56835;52.198;4.826;2023-02-28T00:23:53;55.19;53.01;56.70;;
66458;Laerm;56835;52.198;4.826;2023-02-28T00:24:04;55.20;52.97;56.64;;
66458;Laerm;56835;52.198;4.826;2023-02-28T00:24:14;55.35;53.80;56.71;;
66458;Laerm;56835;52.198;4.826;2023-02-28T00:24:24;55.19;53.10;56.47;;
66458;Laerm;56835;52.198;4.826;2023-02-28T00:24:34;55.29;53.51;56.72;;
66458;Laerm;56835;52.198;4.826;2023-02-28T00:24:45;55.25;52.87;56.90;;
66458;Laerm;56835;52.198;4.826;2023-02-28T00:24:55;55.19;53.48;56.57;;
66458;Laerm;56835;52.198;4.826;2023-02-28T00:25:06;55.28;52.92;56.64;;
66458;Laerm;56835;52.198;4.826;2023-02-28T00:25:18;55.22;52.99;56.83;;
66458;Laerm;56835;52.198;4.826;2023-02-28T00:25:29;55.29;53.33;56.86;;
66458;Laerm;56835;52.198;4.826;2023-02-28T00:25:39;55.29;53.14;56.85;;
66458;Laerm;56835;52.198;4.826;2023-02-28T00:25:50;55.27;53.25;56.80;;
66458;Laerm;56835;52.198;4.826;2023-02-28T00:26:00;55.21;53.22;56.63;;
66458;Laerm;56835;52.198;4.826;2023-02-28T00:26:11;55.20;53.31;56.67;;
66458;Laerm;56835;52.198;4.826;2023-02-28T00:26:21;55.29;53.48;56.96;;
66458;Laerm;56835;52.198;4.826;2023-02-28T00:26:31;55.31;53.85;56.65;;
66458;Laerm;56835;52.198;4.826;2023-02-28T00:26:42;55.28;53.13;56.63;;
66458;Laerm;56835;52.198;4.826;2023-02-28T00:26:52;55.31;53.34;56.87;;
66458;Laerm;56835;52.198;4.826;2023-02-28T00:27:02;55.37;53.65;56.95;;
66458;Laerm;56835;52.198;4.826;2023-02-28T00:27:13;55.22;53.21;56.81;;
66458;Laerm;56835;52.198;4.826;2023-02-28T00:27:23;55.20;53.08;56.75;;
66458;Laerm;56835;52.198;4.826;2023-02-28T00:27:34;55.25;53.09;56.65;;
66458;Laerm;56835;52.198;4.826;2023-02-28T00:27:45;55.20;53.06;56.65;;
66458;Laerm;56835;52.198;4.826;2023-02-28T00:27:55;55.27;53.16;56.72;;
66458;Laerm;56835;52.198;4.826;2023-02-28T00:28:05;55.16;53.16;56.74;;
66458;Laerm;56835;52.198;4.826;2023-02-28T00:28:16;55.31;53.28;56.82;;
66458;Laerm;56835;52.198;4.826;2023-02-28T00:28:26;55.30;52.94;56.66;;
66458;Laerm;56835;52.198;4.826;2023-02-28T00:28:36;55.27;53.00;56.67;;
66458;Laerm;56835;52.198;4.826;2023-02-28T00:28:46;55.23;53.62;56.77;;
66458;Laerm;56835;52.198;4.826;2023-02-28T00:28:58;55.25;52.89;57.03;;
66458;Laerm;56835;52.198;4.826;2023-02-28T00:29:08;55.20;53.54;56.89;;
66458;Laerm;56835;52.198;4.826;2023-02-28T00:29:19;55.26;53.83;56.53;;
66458;Laerm;56835;52.198;4.826;2023-02-28T00:29:29;55.24;51.83;56.72;;
66458;Laerm;56835;52.198;4.826;2023-02-28T00:29:39;55.23;52.89;56.82;;
66458;Laerm;56835;52.198;4.826;2023-02-28T00:29:50;55.27;53.47;56.59;;
66458;Laerm;56835;52.198;4.826;2023-02-28T00:30:00;55.27;53.48;56.77;;
66458;Laerm;56835;52.198;4.826;2023-02-28T00:30:12;55.19;53.14;56.76;;
66458;Laerm;56835;52.198;4.826;2023-02-28T00:30:23;55.15;53.19;56.82;;
66458;Laerm;56835;52.198;4.826;2023-02-28T00:30:33;55.28;53.47;56.67;;
66458;Laerm;56835;52.198;4.826;2023-02-28T00:30:44;55.17;53.22;57.21;;
66458;Laerm;56835;52.198;4.826;2023-02-28T00:30:54;55.26;52.88;56.72;;
66458;Laerm;56835;52.198;4.826;2023-02-28T00:31:04;55.23;52.53;56.51;;
66458;Laerm;56835;52.198;4.826;2023-02-28T00:31:15;55.27;53.15;56.71;;
66458;Laerm;56835;52.198;4.826;2023-02-28T00:31:25;55.25;53.51;56.98;;
66458;Laerm;56835;52.198;4.826;2023-02-28T00:31:35;55.25;53.54;57.00;;
66458;Laerm;56835;52.198;4.826;2023-02-28T00:31:45;55.25;53.56;56.89;;
66458;Laerm;56835;52.198;4.826;2023-02-28T00:31:55;55.24;52.84;56.71;;
66458;Laerm;56835;52.198;4.826;2023-02-28T00:32:06;55.21;53.24;56.86;;
66458;Laerm;56835;52.198;4.826;2023-02-28T00:32:16;55.21;53.36;56.65;;
66458;Laerm;56835;52.198;4.826;2023-02-28T00:32:28;55.17;52.90;56.81;;
66458;Laerm;56835;52.198;4.826;2023-02-28T00:32:39;55.27;53.19;56.85;;
66458;Laerm;56835;52.198;4.826;2023-02-28T00:32:50;55.27;53.68;56.81;;
66458;Laerm;56835;52.198;4.826;2023-02-28T00:33:00;55.22;53.20;56.44;;
66458;Laerm;56835;52.198;4.826;2023-02-28T00:33:11;55.23;53.31;56.55;;
66458;Laerm;56835;52.198;4.826;2023-02-28T00:33:21;55.21;53.31;56.56;;
66458;Laerm;56835;52.198;4.826;2023-02-28T00:33:31;55.15;52.80;56.49;;
66458;Laerm;56835;52.198;4.826;2023-02-28T00:33:41;55.21;52.44;56.57;;
66458;Laerm;56835;52.198;4.826;2023-02-28T00:33:52;55.19;53.68;56.56;;
66458;Laerm;56835;52.198;4.826;2023-02-28T00:34:02;55.22;53.18;56.61;;
66458;Laerm;56835;52.198;4.826;2023-02-28T00:34:12;55.24;53.08;56.58;;
66458;Laerm;56835;52.198;4.826;2023-02-28T00:34:22;55.19;53.25;56.76;;
66458;Laerm;56835;52.198;4.826;2023-02-28T00:34:33;55.27;52.86;56.85;;
66458;Laerm;56835;52.198;4.826;2023-02-28T00:34:47;55.17;53.28;56.65;;
66458;Laerm;56835;52.198;4.826;2023-02-28T00:34:57;55.22;53.27;56.87;;
66458;Laerm;56835;52.198;4.826;2023-02-28T00:35:08;55.18;52.90;56.68;;
66458;Laerm;56835;52.198;4.826;2023-02-28T00:35:19;55.20;53.64;56.89;;
66458;Laerm;56835;52.198;4.826;2023-02-28T00:35:29;55.18;53.05;56.59;;
66458;Laerm;56835;52.198;4.826;2023-02-28T00:35:39;55.25;53.50;56.45;;
66458;Laerm;56835;52.198;4.826;2023-02-28T00:35:49;55.22;52.97;56.68;;
66458;Laerm;56835;52.198;4.826;2023-02-28T00:36:04;55.24;53.23;56.54;;
66458;Laerm;56835;52.198;4.826;2023-02-28T00:36:14;55.25;53.02;56.78;;
66458;Laerm;56835;52.198;4.826;2023-02-28T00:36:25;55.21;53.05;56.78;;
66458;Laerm;56835;52.198;4.826;2023-02-28T00:36:35;55.24;52.95;56.66;;
66458;Laerm;56835;52.198;4.826;2023-02-28T00:36:45;55.26;53.44;56.53;;
66458;Laerm;56835;52.198;4.826;2023-02-28T00:36:58;55.20;53.26;56.58;;
66458;Laerm;56835;52.198;4.826;2023-02-28T00:37:09;55.23;52.42;56.87;;
66458;Laerm;56835;52.198;4.826;2023-02-28T00:37:20;55.28;53.30;56.75;;
66458;Laerm;56835;52.198;4.826;2023-02-28T00:37:30;55.22;53.21;56.90;;
66458;Laerm;56835;52.198;4.826;2023-02-28T00:37:41;55.23;53.28;56.70;;
66458;Laerm;56835;52.198;4.826;2023-02-28T00:37:51;55.21;53.28;56.62;;
66458;Laerm;56835;52.198;4.826;2023-02-28T00:38:02;55.23;53.24;56.65;;
66458;Laerm;56835;52.198;4.826;2023-02-28T00:38:13;55.22;52.43;56.52;;
66458;Laerm;56835;52.198;4.826;2023-02-28T00:38:23;55.21;52.74;56.45;;
66458;Laerm;56835;52.198;4.826;2023-02-28T00:38:33;55.17;53.14;56.67;;
66458;Laerm;56835;52.198;4.826;2023-02-28T00:38:44;55.20;53.17;56.93;;
66458;Laerm;56835;52.198;4.826;2023-02-28T00:38:54;55.20;52.93;56.69;;
66458;Laerm;56835;52.198;4.826;2023-02-28T00:39:04;55.24;53.60;56.72;;
66458;Laerm;56835;52.198;4.826;2023-02-28T00:39:15;55.27;53.38;56.81;;
66458;Laerm;56835;52.198;4.826;2023-02-28T00:39:25;55.16;53.30;56.67;;
66458;Laerm;56835;52.198;4.826;2023-02-28T00:39:36;55.22;53.54;56.60;;
66458;Laerm;56835;52.198;4.826;2023-02-28T00:39:47;55.17;53.00;56.57;;
66458;Laerm;56835;52.198;4.826;2023-02-28T00:39:57;55.20;53.77;56.55;;
66458;Laerm;56835;52.198;4.826;2023-02-28T00:40:07;55.21;53.33;56.90;;
66458;Laerm;56835;52.198;4.826;2023-02-28T00:40:18;55.22;53.36;56.87;;
66458;Laerm;56835;52.198;4.826;2023-02-28T00:40:29;55.23;52.98;56.59;;
66458;Laerm;56835;52.198;4.826;2023-02-28T00:40:39;55.21;53.02;56.81;;
66458;Laerm;56835;52.198;4.826;2023-02-28T00:40:49;55.15;53.10;56.54;;
66458;Laerm;56835;52.198;4.826;2023-02-28T00:41:00;55.29;53.36;56.68;;
66458;Laerm;56835;52.198;4.826;2023-02-28T00:41:14;55.29;53.56;56.75;;
66458;Laerm;56835;52.198;4.826;2023-02-28T00:41:25;55.24;52.97;57.05;;
66458;Laerm;56835;52.198;4.826;2023-02-28T00:41:35;55.20;53.41;56.68;;
66458;Laerm;56835;52.198;4.826;2023-02-28T00:41:45;55.21;53.12;56.51;;
66458;Laerm;56835;52.198;4.826;2023-02-28T00:41:55;55.28;53.07;56.57;;
66458;Laerm;56835;52.198;4.826;2023-02-28T00:42:06;55.16;53.21;56.43;;
66458;Laerm;56835;52.198;4.826;2023-02-28T00:42:16;55.18;53.15;56.58;;
66458;Laerm;56835;52.198;4.826;2023-02-28T00:42:27;55.17;52.64;56.68;;
66458;Laerm;56835;52.198;4.826;2023-02-28T00:42:37;55.22;53.28;56.77;;
66458;Laerm;56835;52.198;4.826;2023-02-28T00:42:48;55.22;53.10;56.80;;
66458;Laerm;56835;52.198;4.826;2023-02-28T00:42:58;55.19;53.36;56.72;;
66458;Laerm;56835;52.198;4.826;2023-02-28T00:43:08;55.22;53.47;56.77;;
66458;Laerm;56835;52.198;4.826;2023-02-28T00:43:18;55.24;52.92;56.80;;
66458;Laerm;56835;52.198;4.826;2023-02-28T00:43:29;55.20;53.66;56.62;;
66458;Laerm;56835;52.198;4.826;2023-02-28T00:43:39;55.22;53.46;57.10;;
66458;Laerm;56835;52.198;4.826;2023-02-28T00:43:49;55.18;53.14;57.12;;
66458;Laerm;56835;52.198;4.826;2023-02-28T00:44:00;55.28;53.04;56.92;;
66458;Laerm;56835;52.198;4.826;2023-02-28T00:44:10;55.18;52.73;56.77;;
66458;Laerm;56835;52.198;4.826;2023-02-28T00:44:21;55.21;53.52;56.67;;
66458;Laerm;56835;52.198;4.826;2023-02-28T00:44:31;55.27;53.10;56.81;;
66458;Laerm;56835;52.198;4.826;2023-02-28T00:44:42;55.23;52.82;56.95;;
66458;Laerm;56835;52.198;4.826;2023-02-28T00:44:52;55.19;53.57;56.71;;
66458;Laerm;56835;52.198;4.826;2023-02-28T00:45:03;55.18;53.04;56.73;;
66458;Laerm;56835;52.198;4.826;2023-02-28T00:45:16;55.29;52.84;56.67;;
66458;Laerm;56835;52.198;4.826;2023-02-28T00:45:26;55.25;52.98;56.66;;
66458;Laerm;56835;52.198;4.826;2023-02-28T00:45:37;55.19;53.14;56.90;;
66458;Laerm;56835;52.198;4.826;2023-02-28T00:45:47;55.25;52.53;56.89;;
66458;Laerm;56835;52.198;4.826;2023-02-28T00:45:57;55.17;53.48;56.73;;
66458;Laerm;56835;52.198;4.826;2023-02-28T00:46:07;55.31;53.65;57.12;;
66458;Laerm;56835;52.198;4.826;2023-02-28T00:46:18;55.25;53.20;56.54;;
66458;Laerm;56835;52.198;4.826;2023-02-28T00:46:28;55.23;53.05;56.80;;
66458;Laerm;56835;52.198;4.826;2023-02-28T00:46:38;55.21;53.12;56.60;;
66458;Laerm;56835;52.198;4.826;2023-02-28T00:46:48;55.23;53.56;56.46;;
66458;Laerm;56835;52.198;4.826;2023-02-28T00:46:59;55.26;53.12;56.72;;
66458;Laerm;56835;52.198;4.826;2023-02-28T00:47:09;55.12;52.82;56.57;;
66458;Laerm;56835;52.198;4.826;2023-02-28T00:47:20;55.24;52.96;56.64;;
66458;Laerm;56835;52.198;4.826;2023-02-28T00:47:30;55.25;53.95;56.78;;
66458;Laerm;56835;52.198;4.826;2023-02-28T00:47:41;55.20;53.03;56.77;;
66458;Laerm;56835;52.198;4.826;2023-02-28T00:47:51;55.22;53.25;56.74;;
66458;Laerm;56835;52.198;4.826;2023-02-28T00:48:01;55.23;52.85;56.67;;
66458;Laerm;56835;52.198;4.826;2023-02-28T00:48:12;55.27;53.08;56.69;;
66458;Laerm;56835;52.198;4.826;2023-02-28T00:48:22;55.24;53.61;56.81;;
66458;Laerm;56835;52.198;4.826;2023-02-28T00:48:32;55.21;53.73;56.64;;
66458;Laerm;56835;52.198;4.826;2023-02-28T00:48:42;55.18;53.23;57.19;;
66458;Laerm;56835;52.198;4.826;2023-02-28T00:48:53;55.19;53.18;56.47;;
66458;Laerm;56835;52.198;4.826;2023-02-28T00:49:03;55.20;53.84;56.67;;
66458;Laerm;56835;52.198;4.826;2023-02-28T00:49:13;55.20;52.92;56.81;;
66458;Laerm;56835;52.198;4.826;2023-02-28T00:49:24;55.22;53.66;56.79;;
66458;Laerm;56835;52.198;4.826;2023-02-28T00:49:35;55.25;53.36;56.96;;
66458;Laerm;56835;52.198;4.826;2023-02-28T00:49:45;55.06;53.04;56.55;;
66458;Laerm;56835;52.198;4.826;2023-02-28T00:49:55;55.27;53.46;56.74;;
66458;Laerm;56835;52.198;4.826;2023-02-28T00:50:06;55.16;52.99;56.72;;
66458;Laerm;56835;52.198;4.826;2023-02-28T00:50:17;55.23;53.61;56.79;;
66458;Laerm;56835;52.198;4.826;2023-02-28T00:50:28;55.22;52.59;56.51;;
66458;Laerm;56835;52.198;4.826;2023-02-28T00:50:38;55.22;53.08;56.80;;
66458;Laerm;56835;52.198;4.826;2023-02-28T00:50:49;55.22;53.46;56.61;;
66458;Laerm;56835;52.198;4.826;2023-02-28T00:50:59;55.22;52.93;56.70;;
66458;Laerm;56835;52.198;4.826;2023-02-28T00:51:10;55.15;53.22;56.67;;
66458;Laerm;56835;52.198;4.826;2023-02-28T00:51:20;55.25;53.19;57.10;;
66458;Laerm;56835;52.198;4.826;2023-02-28T00:51:30;55.22;53.37;56.46;;
66458;Laerm;56835;52.198;4.826;2023-02-28T00:51:40;55.21;52.43;56.66;;
66458;Laerm;56835;52.198;4.826;2023-02-28T00:51:51;55.22;53.54;56.49;;
66458;Laerm;56835;52.198;4.826;2023-02-28T00:52:02;55.29;53.16;57.18;;
66458;Laerm;56835;52.198;4.826;2023-02-28T00:52:12;55.35;53.69;56.99;;
66458;Laerm;56835;52.198;4.826;2023-02-28T00:52:22;55.26;53.17;56.78;;
66458;Laerm;56835;52.198;4.826;2023-02-28T00:52:32;55.34;53.32;56.60;;
66458;Laerm;56835;52.198;4.826;2023-02-28T00:52:43;55.31;53.50;56.74;;
66458;Laerm;56835;52.198;4.826;2023-02-28T00:52:53;55.22;53.18;56.62;;
66458;Laerm;56835;52.198;4.826;2023-02-28T00:53:04;55.25;53.36;56.68;;
66458;Laerm;56835;52.198;4.826;2023-02-28T00:53:14;55.19;53.62;56.64;;
66458;Laerm;56835;52.198;4.826;2023-02-28T00:53:24;55.23;53.54;56.60;;
66458;Laerm;56835;52.198;4.826;2023-02-28T00:53:34;55.27;53.53;56.49;;
66458;Laerm;56835;52.198;4.826;2023-02-28T00:53:45;55.21;53.36;56.71;;
66458;Laerm;56835;52.198;4.826;2023-02-28T00:53:55;55.33;53.39;56.60;;
66458;Laerm;56835;52.198;4.826;2023-02-28T00:54:05;55.33;53.62;56.43;;
66458;Laerm;56835;52.198;4.826;2023-02-28T00:54:16;55.33;53.37;56.75;;
66458;Laerm;56835;52.198;4.826;2023-02-28T00:54:26;55.26;53.02;56.63;;
66458;Laerm;56835;52.198;4.826;2023-02-28T00:54:36;55.20;53.14;56.80;;
66458;Laerm;56835;52.198;4.826;2023-02-28T00:54:46;55.18;53.25;56.48;;
66458;Laerm;56835;52.198;4.826;2023-02-28T00:54:57;55.11;52.92;56.62;;
66458;Laerm;56835;52.198;4.826;2023-02-28T00:55:07;55.22;53.35;56.71;;
66458;Laerm;56835;52.198;4.826;2023-02-28T00:55:17;55.26;53.68;56.62;;
66458;Laerm;56835;52.198;4.826;2023-02-28T00:55:28;55.18;53.09;56.54;;
66458;Laerm;56835;52.198;4.826;2023-02-28T00:55:38;55.21;53.35;56.66;;
66458;Laerm;56835;52.198;4.826;2023-02-28T00:55:49;55.18;53.37;56.55;;
66458;Laerm;56835;52.198;4.826;2023-02-28T00:55:59;55.13;52.09;56.52;;
66458;Laerm;56835;52.198;4.826;2023-02-28T00:56:10;55.16;53.54;56.59;;
66458;Laerm;56835;52.198;4.826;2023-02-28T00:56:20;55.14;53.51;56.74;;
66458;Laerm;56835;52.198;4.826;2023-02-28T00:56:31;55.17;53.20;57.04;;
66458;Laerm;56835;52.198;4.826;2023-02-28T00:56:41;55.18;53.16;56.76;;
66458;Laerm;56835;52.198;4.826;2023-02-28T00:56:51;55.21;53.09;56.50;;
66458;Laerm;56835;52.198;4.826;2023-02-28T00:57:01;55.19;53.04;56.80;;
66458;Laerm;56835;52.198;4.826;2023-02-28T00:57:12;55.25;53.13;56.81;;
66458;Laerm;56835;52.198;4.826;2023-02-28T00:57:22;55.21;52.11;56.63;;
66458;Laerm;56835;52.198;4.826;2023-02-28T00:57:32;55.29;53.61;56.64;;
66458;Laerm;56835;52.198;4.826;2023-02-28T00:57:42;55.34;53.19;56.73;;
66458;Laerm;56835;52.198;4.826;2023-02-28T00:57:53;55.28;53.39;56.73;;
66458;Laerm;56835;52.198;4.826;2023-02-28T00:58:03;55.17;53.60;56.49;;
66458;Laerm;56835;52.198;4.826;2023-02-28T00:58:13;55.16;53.47;56.53;;
66458;Laerm;56835;52.198;4.826;2023-02-28T00:58:24;55.16;53.18;56.56;;
66458;Laerm;56835;52.198;4.826;2023-02-28T00:58:34;55.19;53.36;56.57;;
66458;Laerm;56835;52.198;4.826;2023-02-28T00:58:44;55.18;53.33;56.61;;
66458;Laerm;56835;52.198;4.826;2023-02-28T00:58:54;55.17;52.88;56.66;;
66458;Laerm;56835;52.198;4.826;2023-02-28T00:59:05;55.20;53.38;56.70;;
66458;Laerm;56835;52.198;4.826;2023-02-28T00:59:15;55.18;52.99;56.91;;
66458;Laerm;56835;52.198;4.826;2023-02-28T00:59:26;55.20;52.73;56.58;;